Rockford, IL (61101)

10:53 PM CDT on March 28, 2017 (GMT -0500)
Chateau | | Change Station

Elev 909 ft 42.31 °N, 89.10 °W | Updated 15 seconds ago

Clear
Clear
37.7 °F
Feels Like 38 °F
N
0.0
Wind Variable Wind from ESE

Today
High -- | Low -- °F
--% Chance of Precip.
Yesterday
High -- | Low -- °F
Precip. -- in
Pressure 30.24 in
Visibility 10.0 miles
Clouds Clear
Windchill 38 °F
Dew Point 35 °F
Humidity 93%
Rainfall 0.00 in
Snow Depth Not available.
6:45 AM 7:18 PM
New Moon, 2% visible
METAR KRFD 290254Z 06004KT 10SM CLR 06/02 A3022 RMK AO2 SLP238 T00560017 51020
Pressure 30.24 in
Visibility 10.0 miles
Clouds Clear
Windchill 38 °F
Dew Point 35 °F
Humidity 93%
Rainfall 0.00 in
Snow Depth Not available.
6:45 AM 7:18 PM
New Moon, 2% visible
METAR KRFD 290254Z 06004KT 10SM CLR 06/02 A3022 RMK AO2 SLP238 T00560017 51020

Get Severe Weather Alerts

Thanks for signing up!

Be on the lookout for a verification email in your inbox.

You'll start receiving the daily forecast at 8 AM.

×

10-Day Weather Forecast

Almanac

Astronomy

Mar. 28, 2017 Rise Set
Actual Time
Civil Twilight
Nautical Twilight
Astronomical Twilight
Moon
Length of Visible Light
Length of Day
Tomorrow will be .
, % of the Moon is Illuminated

Today's Extremes

State Highs State Lows

Community

WunderPhotos

Upload Photos

1,962,540 photos uploaded!

WunderBlog® & News

Nearby

Air Quality

  Air Quality AQ Index Pollutant
Not available.

Snow Depth

Station Depth Elevation

Earthquake Activity

City Distance Mag. Time & Date
Minimum magnitude displayed is 2.5.

Earthquake Activity

City Distance Mag. Time & Date
Minimum magnitude displayed is 2.5.

Coastal Water Temperatures

Place Temperature

Stations

Nearby Weather Stations

Station Location Temp. Windchill Dew Point Humidity Wind Precip. Elev Updated Type
                   

Watches & Warnings

There are currently no watches in effect.